Time;durP1;ratioP1;P1;durP2;ratioP2;P2;SDS_P1;SDS_P2;PMS_P1;PMS_P2;Temp;Humidity;BMP_temperature;BMP_pressure;BME280_temperature;BME280_humidity;BME280_pressure;Samples;Min_cycle;Max_cycle;Signal;HPM_P1;HPM_P2
2023/10/21 00:00:24;;;;;;;59.95;27.23;;;;;;;7.24;100.00;98597.31;7395770;19;20015;-65
2023/10/21 00:02:53;;;;;;;54.17;26.02;;;;;;;7.25;100.00;98591.16;7395746;19;20041;-65
2023/10/21 00:05:25;;;;;;;66.38;30.02;;;;;;;7.25;100.00;98572.91;7397437;19;20035;-66
2023/10/21 00:07:53;;;;;;;52.00;27.00;;;;;;;7.25;100.00;98575.53;7396584;19;20014;-66
2023/10/21 00:10:22;;;;;;;58.33;27.83;;;;;;;7.26;100.00;98585.06;7396863;19;20422;-66
2023/10/21 00:12:51;;;;;;;53.92;27.30;;;;;;;7.26;100.00;98598.09;7397221;19;20027;-65
2023/10/21 00:15:19;;;;;;;57.67;26.60;;;;;;;7.27;100.00;98605.00;7394959;19;20007;-67
2023/10/21 00:17:48;;;;;;;54.75;27.50;;;;;;;7.26;100.00;98598.09;7396116;19;20075;-67
2023/10/21 00:20:16;;;;;;;57.08;27.60;;;;;;;7.28;100.00;98584.97;7395251;19;20027;-67
2023/10/21 00:22:47;;;;;;;55.17;27.50;;;;;;;7.28;100.00;98590.19;7394753;19;20477;-67
2023/10/21 00:25:15;;;;;;;63.10;27.08;;;;;;;7.28;100.00;98608.44;7396856;19;20010;-67
2023/10/21 00:27:44;;;;;;;58.47;28.35;;;;;;;7.29;100.00;98624.06;7395825;19;20111;-67
2023/10/21 00:30:13;;;;;;;59.85;28.42;;;;;;;7.29;100.00;98621.44;7395107;19;20014;-67
2023/10/21 00:32:42;;;;;;;58.92;27.33;;;;;;;7.31;100.00;98621.38;7396605;19;20093;-67
2023/10/21 00:35:10;;;;;;;59.72;27.25;;;;;;;7.31;100.00;98624.00;7393545;19;20014;-66
2023/10/21 00:37:39;;;;;;;52.38;26.60;;;;;;;7.30;100.00;98604.91;7393120;19;20497;-66
2023/10/21 00:40:12;;;;;;;55.40;27.23;;;;;;;7.32;100.00;98621.31;7396314;19;20014;-66
2023/10/21 00:42:41;;;;;;;64.85;28.98;;;;;;;7.33;100.00;98624.78;7396767;19;20018;-66
2023/10/21 00:45:10;;;;;;;59.15;27.63;;;;;;;7.34;100.00;98636.88;7396164;19;20019;-66
2023/10/21 00:47:38;;;;;;;57.75;27.95;;;;;;;7.34;100.00;98650.81;7395358;19;20022;-66
2023/10/21 00:50:08;;;;;;;61.58;27.55;;;;;;;7.37;100.00;98643.75;7395727;19;20541;-66
2023/10/21 00:52:47;;;;;;;57.80;27.20;;;;;;;7.38;100.00;98637.63;7394274;19;20018;-66
2023/10/21 00:55:18;;;;;;;59.28;26.80;;;;;;;7.35;100.00;98630.75;7395748;19;20014;-70
2023/10/21 00:57:46;;;;;;;57.42;26.88;;;;;;;7.38;100.00;98632.41;7395124;19;20021;-69
2023/10/21 01:00:16;;;;;;;66.85;29.25;;;;;;;7.38;100.00;98635.88;7395732;19;20014;-66
2023/10/21 01:02:45;;;;;;;56.67;27.73;;;;;;;7.38;100.00;98638.47;7395687;19;20029;-65
2023/10/21 01:05:15;;;;;;;63.35;29.02;;;;;;;7.40;100.00;98635.81;7394035;19;20093;-66
2023/10/21 01:07:46;;;;;;;60.55;28.50;;;;;;;7.40;100.00;98641.84;7393429;19;20494;-66
2023/10/21 01:10:14;;;;;;;60.55;28.35;;;;;;;7.42;100.00;98644.38;7395631;19;20014;-66
2023/10/21 01:12:45;;;;;;;63.85;28.77;;;;;;;7.42;100.00;98644.38;7396176;19;20018;-65
2023/10/21 01:15:11;;;;;;;59.53;29.15;;;;;;;7.42;100.00;98647.00;7394871;19;20031;-65
2023/10/21 01:17:40;;;;;;;67.32;28.67;;;;;;;7.43;100.00;98641.75;7394510;19;20011;-66
2023/10/21 01:20:09;;;;;;;57.50;27.65;;;;;;;7.44;100.00;98642.56;7395308;19;20028;-66
2023/10/21 01:22:38;;;;;;;64.05;28.25;;;;;;;7.45;100.00;98646.88;7395218;19;20022;-66
2023/10/21 01:25:11;;;;;;;61.05;27.10;;;;;;;7.45;100.00;98652.94;7394745;19;20028;-66
2023/10/21 01:28:02;;;;;;;60.53;26.38;;;;;;;7.46;100.00;98661.63;7393474;19;20030;-66
2023/10/21 01:30:36;;;;;;;58.00;28.63;;;;;;;7.47;100.00;98658.13;7392925;19;20018;-66
2023/10/21 01:33:05;;;;;;;69.47;30.17;;;;;;;7.47;100.00;98655.50;7392829;19;20481;-66
2023/10/21 01:35:34;;;;;;;59.58;27.65;;;;;;;7.47;100.00;98652.91;7394075;19;20074;-65
2023/10/21 01:38:02;;;;;;;66.03;28.55;;;;;;;7.47;100.00;98645.06;7392710;19;20019;-66
2023/10/21 01:40:33;;;;;;;60.30;27.92;;;;;;;7.47;100.00;98647.69;7394272;19;20493;-66
2023/10/21 01:43:02;;;;;;;58.50;28.60;;;;;;;7.47;100.00;98647.69;7394998;19;20029;-66
2023/10/21 01:45:30;;;;;;;67.15;29.38;;;;;;;7.48;100.00;98655.44;7394576;19;20022;-66
2023/10/21 01:47:59;;;;;;;66.25;29.35;;;;;;;7.48;100.00;98654.56;7397107;19;20014;-65
2023/10/21 01:50:28;;;;;;;92.03;28.95;;;;;;;7.48;100.00;98650.22;7401591;19;20384;-65
2023/10/21 01:52:57;;;;;;;66.38;28.58;;;;;;;7.47;100.00;98643.28;7401801;19;20043;-65
2023/10/21 01:55:26;;;;;;;64.97;29.17;;;;;;;7.48;100.00;98647.59;7400516;19;20383;-66
2023/10/21 01:57:57;;;;;;;69.47;30.98;;;;;;;7.48;100.00;98651.97;7400116;19;20035;-66
2023/10/21 02:00:25;;;;;;;70.05;31.10;;;;;;;7.49;100.00;98656.28;7402088;19;20022;-66
2023/10/21 02:02:55;;;;;;;67.80;29.23;;;;;;;7.50;100.00;98665.78;7398822;19;20358;-66
2023/10/21 02:05:25;;;;;;;71.78;29.20;;;;;;;7.52;100.00;98668.34;7398690;19;20014;-66
2023/10/21 02:07:54;;;;;;;69.03;29.17;;;;;;;7.51;100.00;98675.31;7399699;19;20014;-66
2023/10/21 02:10:23;;;;;;;69.22;29.35;;;;;;;7.52;100.00;98671.81;7401217;19;20022;-66
2023/10/21 02:12:51;;;;;;;66.40;27.92;;;;;;;7.52;100.00;98671.81;7401194;19;20022;-66
2023/10/21 02:15:23;;;;;;;104.95;29.55;;;;;;;7.53;100.00;98675.25;7400685;19;20102;-66
2023/10/21 02:17:57;;;;;;;68.47;29.83;;;;;;;7.53;100.00;98672.66;7399861;19;20007;-66
2023/10/21 02:20:26;;;;;;;59.85;29.13;;;;;;;7.53;100.00;98672.66;7401399;19;20014;-66
2023/10/21 02:23:01;;;;;;;64.93;30.00;;;;;;;7.54;100.00;98663.91;7397867;19;20418;-66
2023/10/21 02:25:29;;;;;;;74.70;29.58;;;;;;;7.55;100.00;98674.28;7400886;19;20018;-66
2023/10/21 02:27:58;;;;;;;69.28;28.42;;;;;;;7.55;100.00;98681.28;7398175;19;20014;-65
2023/10/21 02:30:29;;;;;;;76.15;28.60;;;;;;;7.55;100.00;98673.44;7398198;19;20498;-65
2023/10/21 02:32:57;;;;;;;70.65;27.75;;;;;;;7.55;100.00;98671.66;7401020;19;20035;-66
2023/10/21 02:35:26;;;;;;;75.15;28.65;;;;;;;7.56;100.00;98688.19;7399646;19;20520;-65
2023/10/21 02:37:54;;;;;;;71.20;28.25;;;;;;;7.58;100.00;98696.78;7398850;19;20082;-66
2023/10/21 02:40:23;;;;;;;82.97;29.25;;;;;;;7.57;100.00;98692.47;7400183;19;20035;-66
2023/10/21 02:42:52;;;;;;;85.40;28.17;;;;;;;7.57;100.00;98706.38;7400247;19;20027;-66
2023/10/21 02:45:20;;;;;;;66.43;26.23;;;;;;;7.57;100.00;98711.59;7397396;19;20024;-66
2023/10/21 02:47:51;;;;;;;72.82;27.58;;;;;;;7.59;100.00;98701.09;7398715;19;20077;-66
2023/10/21 02:50:20;;;;;;;69.97;27.35;;;;;;;7.59;100.00;98709.75;7400498;19;20423;-66
2023/10/21 02:52:49;;;;;;;80.72;27.08;;;;;;;7.58;100.00;98718.53;7399996;19;20039;-66
2023/10/21 02:55:18;;;;;;;86.50;27.75;;;;;;;7.58;100.00;98715.06;7399286;19;20015;-67
2023/10/21 02:57:47;;;;;;;78.88;28.20;;;;;;;7.58;100.00;98715.91;7398169;19;20074;-66
2023/10/21 03:00:18;;;;;;;77.13;27.00;;;;;;;7.57;100.00;98721.19;7395918;19;20018;-67
2023/10/21 03:02:48;;;;;;;66.68;25.67;;;;;;;7.56;100.00;98724.72;7399325;19;20007;-67
2023/10/21 03:05:19;;;;;;;106.75;28.75;;;;;;;7.56;100.00;98730.78;7399458;19;20019;-67
2023/10/21 03:07:48;;;;;;;64.30;26.58;;;;;;;7.56;100.00;98743.81;7398573;19;20014;-66
2023/10/21 03:10:23;;;;;;;88.25;27.45;;;;;;;7.56;100.00;98733.38;7399454;19;20018;-66
2023/10/21 03:12:51;;;;;;;65.65;26.30;;;;;;;7.58;100.00;98735.94;7398918;19;20364;-66
2023/10/21 03:15:20;;;;;;;61.05;25.60;;;;;;;7.57;100.00;98729.00;7398703;19;20014;-66
2023/10/21 03:17:48;;;;;;;77.70;26.30;;;;;;;7.57;100.00;98722.03;7397981;19;20018;-66
2023/10/21 03:20:20;;;;;;;71.43;26.92;;;;;;;7.57;100.00;98715.97;7399114;19;20019;-66
2023/10/21 03:22:48;;;;;;;68.47;26.55;;;;;;;7.57;100.00;98727.25;7398667;19;20387;-66
2023/10/21 03:25:17;;;;;;;69.35;26.48;;;;;;;7.58;100.00;98728.09;7398969;19;20035;-66
2023/10/21 03:27:46;;;;;;;89.20;26.52;;;;;;;7.57;100.00;98735.09;7396553;19;20019;-66
2023/10/21 03:30:16;;;;;;;65.82;25.10;;;;;;;7.58;100.00;98735.94;7395762;19;20015;-66
2023/10/21 03:32:44;;;;;;;72.53;27.08;;;;;;;7.58;100.00;98735.94;7398573;19;20041;-67
2023/10/21 03:35:13;;;;;;;63.08;25.02;;;;;;;7.56;100.00;98730.78;7398244;19;20078;-66
2023/10/21 03:37:44;;;;;;;67.18;25.27;;;;;;;7.56;100.00;98725.56;7396274;19;20017;-66
2023/10/21 03:40:13;;;;;;;149.73;25.27;;;;;;;7.56;100.00;98725.56;7396789;19;20087;-66
2023/10/21 03:42:42;;;;;;;59.00;24.38;;;;;;;7.56;100.00;98729.94;7398026;19;20018;-66
2023/10/21 03:45:11;;;;;;;80.13;26.00;;;;;;;7.55;100.00;98734.28;7397989;19;20010;-66
2023/10/21 03:47:39;;;;;;;71.95;24.35;;;;;;;7.55;100.00;98736.06;7395661;19;20497;-67
2023/10/21 03:50:09;;;;;;;73.72;24.08;;;;;;;7.54;100.00;98739.59;7398056;19;20010;-67
2023/10/21 03:52:37;;;;;;;63.42;25.02;;;;;;;7.54;100.00;98736.97;7395930;19;20505;-67
2023/10/21 03:55:09;;;;;;;79.05;25.02;;;;;;;7.53;100.00;98740.50;7397885;19;20074;-67
2023/10/21 03:57:37;;;;;;;101.72;25.25;;;;;;;7.53;100.00;98740.50;7395983;19;20018;-67
2023/10/21 04:00:07;;;;;;;78.10;24.30;;;;;;;7.51;100.00;98737.97;7397948;19;20083;-67
2023/10/21 04:02:36;;;;;;;65.30;24.80;;;;;;;7.52;100.00;98736.19;7395761;19;20096;-66
2023/10/21 04:05:08;;;;;;;86.25;24.58;;;;;;;7.52;100.00;98730.97;7397505;19;20015;-67
2023/10/21 04:07:36;;;;;;;110.15;37.65;;;;;;;7.49;100.00;98729.31;7396751;19;20449;-66
2023/10/21 04:10:08;;;;;;;106.70;29.08;;;;;;;7.49;100.00;98731.94;7394226;19;20082;-66
2023/10/21 04:12:36;;;;;;;74.10;24.50;;;;;;;7.48;100.00;98748.50;7395946;19;20007;-66
2023/10/21 04:15:05;;;;;;;80.25;25.23;;;;;;;7.48;100.00;98757.19;7396832;19;20545;-67
2023/10/21 04:17:33;;;;;;;51.33;23.70;;;;;;;7.47;100.00;98758.09;7395360;19;20078;-67
2023/10/21 04:20:03;;;;;;;59.97;23.52;;;;;;;7.48;100.00;98757.19;7396948;19;20082;-66
2023/10/21 04:22:31;;;;;;;102.63;24.52;;;;;;;7.47;100.00;98760.72;7396492;19;20498;-66
2023/10/21 04:25:01;;;;;;;83.40;25.45;;;;;;;7.47;100.00;98755.50;7395073;19;20082;-67
2023/10/21 04:27:32;;;;;;;64.80;23.95;;;;;;;7.45;100.00;98752.09;7396021;19;20018;-66
2023/10/21 04:30:00;;;;;;;74.05;23.33;;;;;;;7.44;100.00;98747.81;7394542;19;20090;-66
2023/10/21 04:32:29;;;;;;;57.85;23.83;;;;;;;7.43;100.00;98759.16;7396508;19;20027;-67
2023/10/21 04:34:58;;;;;;;62.60;23.83;;;;;;;7.43;100.00;98764.38;7394669;19;20018;-66
2023/10/21 04:37:26;;;;;;;52.00;23.58;;;;;;;7.44;100.00;98763.47;7394602;19;20019;-66
2023/10/21 04:39:55;;;;;;;65.85;24.90;;;;;;;7.44;100.00;98759.97;7394715;19;20026;-66
2023/10/21 04:42:23;;;;;;;64.60;22.90;;;;;;;7.44;100.00;98753.03;7396939;19;20019;-66
2023/10/21 04:44:54;;;;;;;121.43;24.95;;;;;;;7.43;100.00;98747.84;7395634;19;20015;-66
2023/10/21 04:47:23;;;;;;;75.40;23.40;;;;;;;7.41;100.00;98745.31;7396404;19;20074;-66
2023/10/21 04:49:51;;;;;;;109.95;43.60;;;;;;;7.43;100.00;98743.50;7395651;19;20006;-66
2023/10/21 04:52:20;;;;;;;56.83;25.50;;;;;;;7.44;100.00;98746.94;7395652;19;20449;-66
2023/10/21 04:54:49;;;;;;;91.68;24.85;;;;;;;7.44;100.00;98739.09;7394139;19;20440;-67
2023/10/21 04:57:19;;;;;;;63.03;24.42;;;;;;;7.43;100.00;98746.09;7394333;19;20497;-67
2023/10/21 04:59:47;;;;;;;90.25;24.10;;;;;;;7.43;100.00;98743.50;7394109;19;20021;-66
2023/10/21 05:02:18;;;;;;;74.13;24.73;;;;;;;7.44;100.00;98753.03;7393748;19;20014;-66
2023/10/21 05:04:47;;;;;;;190.77;28.15;;;;;;;7.43;100.00;98746.09;7394321;19;20075;-66
2023/10/21 05:07:15;;;;;;;59.65;24.15;;;;;;;7.43;100.00;98745.22;7393565;19;20074;-66
2023/10/21 05:09:44;;;;;;;66.95;24.08;;;;;;;7.42;100.00;98749.63;7395019;19;20522;-66
2023/10/21 05:12:12;;;;;;;59.13;23.67;;;;;;;7.42;100.00;98765.28;7395432;19;20011;-66
2023/10/21 05:14:41;;;;;;;57.45;24.15;;;;;;;7.43;100.00;98776.53;7395351;19;20096;-66
2023/10/21 05:17:09;;;;;;;63.47;32.25;;;;;;;7.44;100.00;98786.06;7394297;19;20081;-67
2023/10/21 05:19:40;;;;;;;71.80;29.55;;;;;;;7.44;100.00;98793.91;7394561;19;20045;-66
2023/10/21 05:22:09;;;;;;;62.58;26.85;;;;;;;7.45;100.00;98800.81;7397458;19;20090;-67
2023/10/21 05:24:37;;;;;;;54.15;24.73;;;;;;;7.47;100.00;98801.63;7400073;19;20070;-67
2023/10/21 05:27:06;;;;;;;65.18;32.85;;;;;;;7.47;100.00;98793.78;7399280;19;20010;-66
2023/10/21 05:29:34;;;;;;;52.33;25.15;;;;;;;7.48;100.00;98805.91;7401094;19;20018;-67
2023/10/21 05:32:03;;;;;;;55.30;25.35;;;;;;;7.49;100.00;98797.16;7399293;19;20410;-67
2023/10/21 05:34:31;;;;;;;49.42;24.75;;;;;;;7.49;100.00;98808.47;7402533;19;20044;-67
2023/10/21 05:37:03;;;;;;;47.58;23.83;;;;;;;7.50;100.00;98822.34;7400850;19;20464;-67
2023/10/21 05:39:31;;;;;;;54.13;24.48;;;;;;;7.51;100.00;98811.03;7402708;19;20014;-66
2023/10/21 05:41:59;;;;;;;51.38;23.85;;;;;;;7.50;100.00;98806.72;7402393;19;20031;-66
2023/10/21 05:44:28;;;;;;;48.30;26.13;;;;;;;7.50;100.00;98815.38;7399212;19;20436;-67
2023/10/21 05:46:56;;;;;;;50.05;24.45;;;;;;;7.52;100.00;98814.47;7398915;19;20135;-67
2023/10/21 05:49:25;;;;;;;48.90;25.27;;;;;;;7.53;100.00;98826.59;7401464;19;20070;-66
2023/10/21 05:51:53;;;;;;;49.22;25.35;;;;;;;7.54;100.00;98817.88;7401503;19;20066;-66
2023/10/21 05:54:25;;;;;;;52.95;25.52;;;;;;;7.54;100.00;98821.31;7401118;19;20087;-66
2023/10/21 05:56:53;;;;;;;49.63;25.73;;;;;;;7.55;100.00;98833.47;7401368;19;20525;-66
2023/10/21 05:59:21;;;;;;;50.45;25.05;;;;;;;7.56;100.00;98834.34;7401272;19;20418;-66
2023/10/21 06:01:50;;;;;;;48.00;24.77;;;;;;;7.58;100.00;98842.94;7401595;19;20107;-65
2023/10/21 06:04:18;;;;;;;51.38;25.10;;;;;;;7.58;100.00;98843.78;7401484;19;20014;-66
2023/10/21 06:06:49;;;;;;;49.97;25.10;;;;;;;7.59;100.00;98839.41;7401128;19;20085;-67
2023/10/21 06:09:18;;;;;;;46.38;23.42;;;;;;;7.59;100.00;98842.84;7401829;19;20007;-66
2023/10/21 06:11:49;;;;;;;53.55;26.13;;;;;;;7.61;100.00;98848.88;7400859;19;20079;-66
2023/10/21 06:14:17;;;;;;;50.20;25.13;;;;;;;7.62;100.00;98842.75;7398501;19;20014;-67
2023/10/21 06:16:46;;;;;;;46.13;24.73;;;;;;;7.65;100.00;98847.00;7398254;19;20078;-66
2023/10/21 06:19:14;;;;;;;54.03;26.92;;;;;;;7.68;100.00;98844.25;7398070;19;20073;-65
2023/10/21 06:21:44;;;;;;;52.45;26.75;;;;;;;7.69;100.00;98835.50;7400267;19;20006;-67
2023/10/21 06:24:12;;;;;;;50.67;25.77;;;;;;;7.73;100.00;98836.25;7398227;19;20081;-66
2023/10/21 06:26:41;;;;;;;51.20;27.88;;;;;;;7.75;100.00;98845.72;7399848;19;20485;-66
2023/10/21 06:29:12;;;;;;;49.50;25.75;;;;;;;7.79;100.00;98843.84;7397527;19;20094;-66
2023/10/21 06:31:40;;;;;;;51.10;26.35;;;;;;;7.81;100.00;98839.41;7397263;19;20557;-65
2023/10/21 06:34:09;;;;;;;47.65;26.42;;;;;;;7.85;100.00;98847.94;7397539;19;20431;-65
2023/10/21 06:36:37;;;;;;;52.47;26.75;;;;;;;7.88;100.00;98850.44;7397264;19;20023;-65
2023/10/21 06:39:06;;;;;;;52.58;26.65;;;;;;;7.91;100.00;98850.31;7400361;19;20014;-66
2023/10/21 06:41:34;;;;;;;94.53;51.65;;;;;;;7.93;100.00;98843.25;7400274;19;20007;-66
2023/10/21 06:44:03;;;;;;;54.55;31.50;;;;;;;7.96;100.00;98858.78;7399612;19;20560;-66
2023/10/21 06:46:34;;;;;;;58.17;31.58;;;;;;;7.96;100.00;98851.81;7399992;19;20018;-66
2023/10/21 06:49:03;;;;;;;50.72;27.95;;;;;;;7.98;100.00;98860.44;7397291;19;20010;-65
2023/10/21 06:51:31;;;;;;;52.80;27.85;;;;;;;8.00;100.00;98852.56;7399680;19;20017;-66
2023/10/21 06:54:00;;;;;;;49.88;27.13;;;;;;;8.01;100.00;98856.00;7399947;19;20059;-66
2023/10/21 06:56:28;;;;;;;49.35;26.10;;;;;;;8.03;100.00;98860.25;7399599;19;20083;-66
2023/10/21 06:58:57;;;;;;;49.60;27.48;;;;;;;8.04;100.00;98856.72;7395969;19;20070;-67
2023/10/21 07:01:25;;;;;;;52.20;27.40;;;;;;;8.06;100.00;98864.50;7399102;19;20018;-66
2023/10/21 07:03:56;;;;;;;53.20;28.30;;;;;;;8.09;100.00;98869.59;7399481;19;20011;-66
2023/10/21 07:06:25;;;;;;;51.10;26.83;;;;;;;8.10;100.00;98866.06;7396726;19;20480;-66
2023/10/21 07:08:54;;;;;;;55.55;28.23;;;;;;;8.12;100.00;98872.91;7396670;19;20006;-66
2023/10/21 07:11:23;;;;;;;55.65;29.75;;;;;;;8.15;100.00;98874.53;7398741;19;20375;-66
2023/10/21 07:13:52;;;;;;;56.42;30.15;;;;;;;8.17;100.00;98883.19;7399186;19;20014;-66
2023/10/21 07:16:20;;;;;;;54.05;29.40;;;;;;;8.20;100.00;98885.69;7396694;19;20014;-66
2023/10/21 07:18:49;;;;;;;56.47;29.58;;;;;;;8.24;100.00;98889.00;7396353;19;20019;-67
2023/10/21 07:21:20;;;;;;;58.95;29.00;;;;;;;8.27;100.00;98897.56;7398235;19;20501;-66
2023/10/21 07:23:49;;;;;;;56.70;29.35;;;;;;;8.31;100.00;98901.75;7397711;19;20031;-65
2023/10/21 07:26:19;;;;;;;60.85;29.48;;;;;;;8.36;100.00;98903.31;7395399;19;20480;-65
2023/10/21 07:28:47;;;;;;;61.88;30.77;;;;;;;8.41;100.00;98898.75;7395815;19;20019;-66
2023/10/21 07:31:16;;;;;;;60.15;30.42;;;;;;;8.46;100.00;98905.50;7395683;19;20082;-67
2023/10/21 07:33:44;;;;;;;59.78;30.98;;;;;;;8.51;100.00;98914.94;7397893;19;20010;-66
2023/10/21 07:36:13;;;;;;;60.80;30.63;;;;;;;8.57;100.00;98917.28;7398631;19;20077;-66
2023/10/21 07:38:44;;;;;;;59.97;30.25;;;;;;;8.62;100.00;98920.53;7396094;19;20505;-66
2023/10/21 07:41:13;;;;;;;65.38;31.23;;;;;;;8.68;100.00;98919.41;7398133;19;20078;-66
2023/10/21 07:43:41;;;;;;;61.38;31.27;;;;;;;8.75;100.00;98926.09;7395388;19;20028;-65
2023/10/21 07:46:10;;;;;;;67.15;32.13;;;;;;;8.84;100.00;98920.44;7395223;19;20078;-66
2023/10/21 07:48:39;;;;;;;64.38;33.70;;;;;;;8.95;100.00;98918.22;7395171;19;20078;-66
2023/10/21 07:51:08;;;;;;;64.50;31.35;;;;;;;9.07;100.00;98929.91;7397494;19;20063;-66
2023/10/21 07:53:36;;;;;;;64.80;31.13;;;;;;;9.20;100.00;98931.97;7396683;19;20419;-66
2023/10/21 07:56:07;;;;;;;60.35;32.05;;;;;;;9.32;100.00;98933.19;7397323;19;20370;-66
2023/10/21 07:58:38;;;;;;;57.20;30.90;;;;;;;9.43;100.00;98928.31;7395397;19;20481;-65
2023/10/21 08:01:06;;;;;;;57.67;31.13;;;;;;;9.55;100.00;98935.56;7397014;19;20010;-67
2023/10/21 08:03:35;;;;;;;57.47;31.48;;;;;;;9.66;100.00;98934.25;7397497;19;20039;-67
2023/10/21 08:06:04;;;;;;;52.70;30.58;;;;;;;9.76;100.00;98940.75;7397030;19;20015;-66
2023/10/21 08:08:32;;;;;;;57.88;31.25;;;;;;;9.86;100.00;98947.22;7395203;19;20073;-66
2023/10/21 08:11:04;;;;;;;54.72;31.10;;;;;;;9.97;100.00;98948.50;7397096;19;20018;-66
2023/10/21 08:13:35;;;;;;;54.75;31.58;;;;;;;10.08;100.00;98961.91;7396765;19;20061;-68
2023/10/21 08:16:04;;;;;;;59.38;36.70;;;;;;;10.18;100.00;98957.09;7394539;19;20353;-66
2023/10/21 08:18:38;;;;;;;47.90;32.00;;;;;;;10.31;100.00;98965.19;7394963;19;20029;-66
2023/10/21 08:21:07;;;;;;;40.10;27.75;;;;;;;10.42;100.00;98966.38;7394969;19;20376;-66
2023/10/21 08:23:35;;;;;;;31.77;19.17;;;;;;;10.54;100.00;98974.56;7394798;19;20018;-66
2023/10/21 08:26:04;;;;;;;24.63;16.80;;;;;;;10.66;100.00;98981.00;7394640;19;20086;-66
2023/10/21 08:28:35;;;;;;;20.52;15.70;;;;;;;10.80;100.00;98990.78;7394739;19;20023;-66
2023/10/21 08:31:03;;;;;;;19.70;14.82;;;;;;;10.94;100.00;98987.44;7394955;19;20074;-66
2023/10/21 08:33:32;;;;;;;16.20;12.40;;;;;;;11.06;100.00;98989.44;7395254;19;20082;-66
2023/10/21 08:36:01;;;;;;;16.85;12.20;;;;;;;11.18;100.00;98986.16;7395840;19;20505;-66
2023/10/21 08:38:30;;;;;;;17.42;12.25;;;;;;;11.31;100.00;98996.03;7394592;19;20018;-65
2023/10/21 08:40:59;;;;;;;14.82;12.68;;;;;;;11.43;100.00;98990.13;7396396;19;20502;-66
2023/10/21 08:43:27;;;;;;;15.05;12.07;;;;;;;11.54;100.00;98997.44;7396074;19;20014;-65
2023/10/21 08:45:59;;;;;;;15.63;11.95;;;;;;;11.66;100.00;99001.19;7394611;19;20018;-66
2023/10/21 08:48:28;;;;;;;13.07;10.10;;;;;;;11.76;100.00;98997.13;7394569;19;20014;-65
2023/10/21 08:50:57;;;;;;;10.32;9.05;;;;;;;11.86;100.00;99000.94;7395358;19;20436;-64
2023/10/21 08:53:27;;;;;;;10.27;7.80;;;;;;;11.98;100.00;99007.34;7395335;19;20433;-66
2023/10/21 08:55:55;;;;;;;9.65;7.88;;;;;;;12.08;100.00;99005.06;7393403;19;20489;-66
2023/10/21 08:58:28;;;;;;;9.98;7.80;;;;;;;12.18;100.00;99010.63;7392173;19;20074;-66
2023/10/21 09:00:59;;;;;;;10.70;8.10;;;;;;;12.30;100.00;99009.09;7395683;19;20041;-65
2023/10/21 09:03:28;;;;;;;12.00;9.05;;;;;;;12.43;100.00;99006.63;7393937;19;20090;-66
2023/10/21 09:06:10;;;;;;;6.10;4.90;;;;;;;12.57;100.00;99014.56;7395234;19;20019;-65
2023/10/21 09:08:45;;;;;;;4.55;4.13;;;;;;;12.71;100.00;99019.00;7393376;19;20018;-65
2023/10/21 09:11:15;;;;;;;4.72;3.08;;;;;;;12.84;100.00;99025.25;7394746;19;20478;-65
2023/10/21 09:13:44;;;;;;;5.85;3.05;;;;;;;12.97;100.00;99032.44;7395499;19;20024;-64
2023/10/21 09:16:26;;;;;;;3.33;3.00;;;;;;;13.08;100.00;99024.75;7394467;19;20549;-64
2023/10/21 09:19:00;;;;;;;3.30;2.70;;;;;;;13.20;100.00;99034.56;7393266;19;20018;-64
2023/10/21 09:21:40;;;;;;;6.78;2.95;;;;;;;13.32;100.00;99042.63;7394515;19;20003;-64
2023/10/21 09:24:11;;;;;;;3.72;2.40;;;;;;;13.43;100.00;99045.50;7393688;19;20007;-65
2023/10/21 09:26:42;;;;;;;2.38;1.77;;;;;;;13.58;100.00;99050.78;7393413;19;20019;-64
2023/10/21 09:29:11;;;;;;;2.83;1.70;;;;;;;13.70;100.00;99047.41;7394691;19;20490;-63
2023/10/21 09:31:49;;;;;;;2.67;2.17;;;;;;;13.83;100.00;99050.97;7393495;19;20003;-64
2023/10/21 09:34:28;;;;;;;2.85;1.75;;;;;;;13.96;100.00;99045.78;7392313;19;20461;-64
2023/10/21 09:36:57;;;;;;;2.60;1.63;;;;;;;14.07;100.00;99045.09;7391216;19;20756;-65
2023/10/21 09:39:28;;;;;;;2.72;1.25;;;;;;;14.17;100.00;99053.28;7392495;19;20014;-64
2023/10/21 09:41:57;;;;;;;1.27;0.85;;;;;;;14.27;100.00;99062.28;7394535;19;20014;-64
2023/10/21 09:44:27;;;;;;;2.30;1.23;;;;;;;14.37;100.00;99059.03;7392067;19;20014;-64
2023/10/21 09:47:00;;;;;;;2.17;0.90;;;;;;;14.47;100.00;99066.28;7391663;19;20074;-65
2023/10/21 09:49:29;;;;;;;1.90;0.90;;;;;;;14.58;100.00;99075.28;7393147;19;20410;-64
2023/10/21 09:52:04;;;;;;;2.53;0.77;;;;;;;14.63;99.27;99075.84;7391550;19;20046;-64
2023/10/21 09:54:35;;;;;;;1.58;0.70;;;;;;;14.69;94.98;99078.09;7390949;19;20015;-65
2023/10/21 09:57:06;;;;;;;0.77;0.60;;;;;;;14.77;96.81;99085.53;7390528;19;20074;-64
2023/10/21 09:59:37;;;;;;;2.97;0.73;;;;;;;14.85;93.41;99103.50;7391900;19;20018;-64
2023/10/21 10:02:09;;;;;;;0.90;0.40;;;;;;;14.89;90.71;99097.09;7391853;19;20019;-64
2023/10/21 10:04:38;;;;;;;0.55;0.40;;;;;;;14.95;91.68;99100.16;7391590;19;20011;-65
2023/10/21 10:07:09;;;;;;;1.33;0.40;;;;;;;15.04;91.38;99100.47;7392549;19;20073;-64
2023/10/21 10:09:39;;;;;;;0.57;0.40;;;;;;;15.11;89.23;99096.50;7396657;19;20010;-63
2023/10/21 10:12:13;;;;;;;1.20;0.30;;;;;;;15.17;87.60;99113.75;7402060;19;20023;-65
2023/10/21 10:14:41;;;;;;;0.63;0.40;;;;;;;15.25;91.42;99119.34;7401394;19;20011;-63
2023/10/21 10:17:13;;;;;;;5.18;0.50;;;;;;;15.30;92.00;99122.50;7399405;19;20035;-64
2023/10/21 10:19:43;;;;;;;1.80;0.30;;;;;;;15.34;89.01;99123.16;7397824;19;20081;-64
2023/10/21 10:22:21;;;;;;;0.65;0.32;;;;;;;15.38;88.15;99122.00;7400004;19;20014;-65
2023/10/21 10:24:53;;;;;;;0.75;0.40;;;;;;;15.42;88.44;99124.34;7400643;19;20030;-64
2023/10/21 10:27:22;;;;;;;1.05;0.38;;;;;;;15.51;89.54;99140.53;7398651;19;20006;-63
2023/10/21 10:29:59;;;;;;;1.52;0.20;;;;;;;15.54;89.27;99141.16;7398569;19;20025;-64
2023/10/21 10:32:36;;;;;;;2.15;0.68;;;;;;;15.58;86.86;99144.44;7400208;19;20006;-63
2023/10/21 10:35:06;;;;;;;1.23;0.30;;;;;;;15.66;89.15;99152.69;7400221;19;20011;-64
2023/10/21 10:37:36;;;;;;;0.73;0.20;;;;;;;15.69;86.69;99149.81;7398704;19;20037;-69
2023/10/21 10:40:19;;;;;;;1.58;0.38;;;;;;;15.75;81.71;99160.00;7397838;19;20051;-66
2023/10/21 10:42:48;;;;;;;0.45;0.30;;;;;;;15.83;83.00;99163.94;7399743;19;20066;-67
2023/10/21 10:45:18;;;;;;;2.42;0.22;;;;;;;15.87;84.93;99160.13;7396896;19;20017;-67
2023/10/21 10:47:49;;;;;;;0.47;0.28;;;;;;;15.90;82.53;99170.50;7397841;19;20006;-64
2023/10/21 10:50:23;;;;;;;1.02;0.40;;;;;;;15.96;83.97;99188.56;7399659;19;20023;-65
2023/10/21 10:52:51;;;;;;;;;;;;;;;15.98;76.20;99193.78;7402895;19;20011;-65
2023/10/21 10:55:19;;;;;;;5.80;3.58;;;;;;;16.04;83.32;99186.25;7396854;19;19924;-64
2023/10/21 10:57:48;;;;;;;2.58;1.38;;;;;;;16.08;83.72;99190.38;7397261;19;20455;-64
2023/10/21 11:00:20;;;;;;;3.50;1.40;;;;;;;16.12;82.28;99201.59;7397014;19;20019;-66
2023/10/21 11:02:52;;;;;;;2.70;0.70;;;;;;;16.17;78.57;99219.81;7399520;19;20480;-66
2023/10/21 11:05:23;;;;;;;2.08;0.30;;;;;;;16.23;82.23;99214.09;7399217;19;20011;-65
2023/10/21 11:07:53;;;;;;;0.40;0.30;;;;;;;16.26;80.97;99214.72;7396855;19;20049;-64
2023/10/21 11:10:22;;;;;;;1.65;0.40;;;;;;;16.28;81.18;99228.69;7398730;19;20074;-66
2023/10/21 11:12:52;;;;;;;0.35;0.30;;;;;;;16.30;82.36;99228.56;7399077;19;20079;-66
2023/10/21 11:15:21;;;;;;;1.70;0.40;;;;;;;16.29;82.49;99245.41;7398620;19;20517;-67
2023/10/21 11:17:53;;;;;;;0.40;0.20;;;;;;;16.25;80.54;99249.22;7396230;19;20085;-67
2023/10/21 11:20:23;;;;;;;1.50;0.40;;;;;;;16.25;83.08;99255.38;7395599;19;20015;-68
2023/10/21 11:22:51;;;;;;;1.98;0.22;;;;;;;16.26;80.82;99258.84;7398821;19;20070;-66
2023/10/21 11:25:19;;;;;;;1.15;0.10;;;;;;;16.28;82.88;99256.94;7398799;19;20033;-66
2023/10/21 11:27:48;;;;;;;0.20;0.20;;;;;;;16.29;83.18;99256.84;7397303;19;20031;-66
2023/10/21 11:30:17;;;;;;;0.43;0.13;;;;;;;16.31;82.37;99262.00;7395586;19;20553;-65